Time;durP1;ratioP1;P1;durP2;ratioP2;P2;SDS_P1;SDS_P2;PMS_P1;PMS_P2;Temp;Humidity;BMP_temperature;BMP_pressure;BME280_temperature;BME280_humidity;BME280_pressure;Samples;Min_cycle;Max_cycle;Signal;HPM_P1;HPM_P2
2022/06/08 00:00:01;;;;;;;1.95;1.77;;;22.00;63.40;;;;;;5054582;28;20025;-63
2022/06/08 00:02:32;;;;;;;2.70;2.10;;;22.00;80.00;;;;;;5055515;28;20044;-63
2022/06/08 00:04:58;;;;;;;4.03;1.70;;;22.10;94.20;;;;;;5055732;28;20029;-63
2022/06/08 00:07:24;;;;;;;2.53;1.60;;;22.00;94.30;;;;;;5055675;28;20037;-63
2022/06/08 00:09:49;;;;;;;3.17;1.70;;;22.00;94.30;;;;;;5055531;28;20032;-63
2022/06/08 00:12:15;;;;;;;3.25;2.10;;;;;;;;;;5055485;28;20029;-64
2022/06/08 00:14:41;;;;;;;2.72;1.88;;;;;;;;;;5055430;28;20094;-63
2022/06/08 00:17:07;;;;;;;2.50;2.20;;;;;;;;;;5055325;28;20104;-64
2022/06/08 00:19:34;;;;;;;2.10;1.90;;;;;;;;;;5055377;28;20037;-63
2022/06/08 00:22:00;;;;;;;1.92;1.73;;;;;;;;;;5055334;28;20021;-63
2022/06/08 00:24:26;;;;;;;1.65;1.55;;;22.10;94.40;;;;;;5055616;28;20087;-63
2022/06/08 00:26:51;;;;;;;3.20;2.20;;;21.60;94.30;;;;;;5055273;28;20025;-63
2022/06/08 00:29:17;;;;;;;2.75;2.17;;;;;;;;;;5055176;28;20036;-63
2022/06/08 00:31:43;;;;;;;2.22;2.03;;;;;;;;;;5055209;28;20048;-63
2022/06/08 00:34:09;;;;;;;2.30;1.88;;;;;;;;;;5055009;28;20087;-63
2022/06/08 00:36:35;;;;;;;4.07;2.00;;;21.90;94.60;;;;;;5055057;28;20063;-63
2022/06/08 00:39:01;;;;;;;2.60;1.98;;;;;;;;;;5055298;28;20118;-64
2022/06/08 00:41:38;;;;;;;4.00;2.05;;;21.90;73.90;;;;;;5055178;28;20379;-63
2022/06/08 00:44:19;;;;;;;1.90;1.60;;;21.20;94.30;;;;;;5054942;28;20037;-63
2022/06/08 00:46:46;;;;;;;3.30;2.50;;;21.90;90.80;;;;;;5054882;28;20021;-63
2022/06/08 00:49:25;;;;;;;2.33;1.85;;;21.90;94.60;;;;;;5055183;28;20412;-63
2022/06/08 00:51:51;;;;;;;2.75;1.90;;;;;;;;;;5055095;28;20070;-63
2022/06/08 00:54:40;;;;;;;1.90;1.65;;;21.80;63.70;;;;;;5054654;28;20073;-63
2022/06/08 00:57:29;;;;;;;5.05;2.47;;;21.80;94.60;;;;;;5054915;28;20071;-63
2022/06/08 01:00:00;;;;;;;2.40;2.13;;;21.50;63.60;;;;;;5043948;28;20182;-63
2022/06/08 01:02:26;;;;;;;2.30;2.10;;;21.90;94.60;;;;;;5054562;28;20098;-63
2022/06/08 01:05:25;;;;;;;1.98;1.80;;;21.70;94.50;;;;;;5054786;28;20108;-63
2022/06/08 01:07:54;;;;;;;3.78;2.00;;;22.60;64.30;;;;;;5054834;28;20028;-63
2022/06/08 01:10:24;;;;;;;2.20;1.98;;;21.80;80.40;;;;;;5054622;28;20086;-63
2022/06/08 01:12:50;;;;;;;2.10;1.90;;;22.00;94.60;;;;;;5054873;28;20389;-63
2022/06/08 01:15:26;;;;;;;4.88;2.60;;;21.60;63.70;;;;;;5054581;28;20021;-64
2022/06/08 01:17:51;;;;;;;2.65;2.10;;;21.90;94.60;;;;;;5054578;28;20384;-63
2022/06/08 01:20:18;;;;;;;2.10;1.98;;;;;;;;;;5054434;28;20023;-64
2022/06/08 01:22:43;;;;;;;2.20;2.00;;;22.00;94.60;;;;;;5054447;28;20033;-63
2022/06/08 01:25:12;;;;;;;2.10;1.90;;;21.70;64.00;;;;;;5054503;28;20024;-64
2022/06/08 01:27:57;;;;;;;2.15;1.80;;;22.00;93.90;;;;;;5054322;28;20112;-63
2022/06/08 01:30:52;;;;;;;2.03;1.90;;;21.30;63.30;;;;;;5054286;28;20389;-64
2022/06/08 01:33:35;;;;;;;3.17;2.22;;;21.90;94.70;;;;;;5043327;28;20186;-64
2022/06/08 01:36:32;;;;;;;2.17;1.98;;;21.50;63.70;;;;;;5054287;28;20071;-64
2022/06/08 01:39:10;;;;;;;2.88;2.00;;;21.30;94.40;;;;;;5054163;28;20449;-63
2022/06/08 01:41:54;;;;;;;2.13;1.85;;;21.40;94.50;;;;;;5053969;28;20024;-63
2022/06/08 01:45:28;;;;;;;2.63;2.05;;;21.40;94.50;;;;;;5054124;28;20036;-63
2022/06/08 01:48:10;;;;;;;2.30;2.10;;;21.80;94.70;;;;;;5053810;28;20108;-64
2022/06/08 01:51:02;;;;;;;2.53;2.00;;;21.70;64.00;;;;;;5009832;28;20455;-63
2022/06/08 01:53:47;;;;;;;3.17;1.83;;;21.60;59.80;;;;;;5035985;28;20037;-63
2022/06/08 01:56:22;;;;;;;1.90;1.80;;;22.00;90.20;;;;;;5053829;28;20032;-64
2022/06/08 01:59:01;;;;;;;1.70;1.60;;;21.40;94.80;;;;;;5053909;28;20036;-63
2022/06/08 02:01:44;;;;;;;2.70;1.80;;;21.60;63.90;;;;;;5053628;28;20024;-64
2022/06/08 02:04:27;;;;;;;2.13;1.83;;;21.90;94.60;;;;;;5053788;28;20416;-63
2022/06/08 02:07:08;;;;;;;2.47;1.80;;;21.80;69.80;;;;;;5053924;28;20020;-64
2022/06/08 02:09:41;;;;;;;2.20;1.70;;;21.50;94.70;;;;;;5053550;28;20437;-63
2022/06/08 02:12:10;;;;;;;1.83;1.73;;;21.60;77.60;;;;;;5053489;28;20025;-64
2022/06/08 02:14:58;;;;;;;2.05;1.70;;;21.70;94.70;;;;;;5053641;28;20384;-63
2022/06/08 02:17:38;;;;;;;2.58;2.05;;;21.20;94.70;;;;;;5053352;28;20529;-64
2022/06/08 02:20:16;;;;;;;2.78;2.05;;;21.60;94.80;;;;;;5053507;28;20387;-63
2022/06/08 02:22:47;;;;;;;1.80;1.70;;;21.20;71.00;;;;;;5053089;28;20392;-63
2022/06/08 02:25:36;;;;;;;2.13;1.92;;;21.40;63.90;;;;;;5053311;28;20040;-63
2022/06/08 02:28:15;;;;;;;1.75;1.65;;;21.40;63.20;;;;;;5052890;28;20384;-63
2022/06/08 02:30:47;;;;;;;2.40;2.13;;;21.50;64.30;;;;;;5053145;28;20442;-64
2022/06/08 02:36:20;;;;;;;2.63;2.20;;;21.50;64.20;;;;;;5053394;28;20036;-63
2022/06/08 02:38:53;;;;;;;3.15;1.73;;;21.60;94.80;;;;;;5053166;28;20025;-63
2022/06/08 02:41:21;;;;;;;2.00;1.80;;;21.70;94.80;;;;;;5053031;28;20033;-64
2022/06/08 02:43:52;;;;;;;1.90;1.70;;;21.50;64.40;;;;;;5052905;28;20032;-63
2022/06/08 02:46:28;;;;;;;1.75;1.52;;;21.60;64.20;;;;;;5052833;28;20029;-63
2022/06/08 02:48:53;;;;;;;2.25;1.42;;;21.10;94.60;;;;;;5052873;28;20025;-64
2022/06/08 02:51:28;;;;;;;2.08;1.67;;;21.80;83.70;;;;;;5052720;28;20471;-64
2022/06/08 02:54:01;;;;;;;3.50;1.67;;;21.20;94.70;;;;;;5052640;28;20398;-64
2022/06/08 02:56:50;;;;;;;2.35;1.60;;;21.50;59.90;;;;;;5052728;28;20175;-64
2022/06/08 02:59:22;;;;;;;2.22;1.73;;;21.50;71.00;;;;;;5052951;28;20021;-64
2022/06/08 03:02:00;;;;;;;2.20;1.60;;;21.30;94.50;;;;;;5052267;28;20052;-64
2022/06/08 03:04:51;;;;;;;2.33;1.80;;;21.60;91.90;;;;;;5052584;28;20025;-64
2022/06/08 03:07:21;;;;;;;1.75;1.65;;;21.30;63.90;;;;;;5052462;28;20553;-64
2022/06/08 03:09:48;;;;;;;2.00;1.60;;;21.10;94.70;;;;;;5052432;28;20027;-64
2022/06/08 03:12:30;;;;;;;1.80;1.70;;;21.80;94.70;;;;;;5052375;28;20020;-64
2022/06/08 03:14:56;;;;;;;3.00;1.50;;;21.70;85.20;;;;;;5052640;28;20075;-64
2022/06/08 03:17:27;;;;;;;1.67;1.55;;;21.40;94.70;;;;;;5052673;28;20044;-64
2022/06/08 03:19:53;;;;;;;1.80;1.70;;;;;;;;;;5052589;28;20384;-64
2022/06/08 03:22:19;;;;;;;2.63;1.88;;;;;;;;;;5052561;28;20055;-64
2022/06/08 03:24:46;;;;;;;2.67;1.80;;;;;;;;;;5052162;28;20444;-63
2022/06/08 03:27:12;;;;;;;1.50;1.40;;;21.50;94.80;;;;;;5052183;28;20487;-64
2022/06/08 03:29:39;;;;;;;2.75;2.00;;;21.70;94.90;;;;;;5052266;28;20394;-63
2022/06/08 03:32:05;;;;;;;2.10;1.90;;;21.40;63.20;;;;;;5052033;28;20480;-64
2022/06/08 03:34:31;;;;;;;1.83;1.70;;;21.40;64.10;;;;;;5051310;28;20047;-64
2022/06/08 03:36:57;;;;;;;1.52;1.13;;;;;;;;;;5052058;28;20472;-64
2022/06/08 03:39:23;;;;;;;2.78;1.60;;;;;;;;;;5052301;28;20111;-64
2022/06/08 03:41:49;;;;;;;1.77;1.52;;;;;;;;;;5052057;28;20032;-63
2022/06/08 03:44:15;;;;;;;1.80;1.48;;;20.90;74.20;;;;;;5051997;28;20476;-63
2022/06/08 03:46:50;;;;;;;1.75;1.65;;;21.40;64.20;;;;;;5052013;28;20100;-63
2022/06/08 03:49:17;;;;;;;1.70;1.60;;;;;;;;;;5052019;28;20028;-63
2022/06/08 03:51:44;;;;;;;1.60;1.50;;;21.50;68.10;;;;;;5052052;28;20025;-63
2022/06/08 03:54:16;;;;;;;2.03;1.60;;;21.70;94.90;;;;;;5052185;28;20033;-64
2022/06/08 03:56:48;;;;;;;1.95;1.58;;;21.40;94.90;;;;;;5052214;28;20017;-63
2022/06/08 03:59:13;;;;;;;2.28;1.60;;;21.40;94.80;;;;;;5051898;28;20479;-63
2022/06/08 04:01:40;;;;;;;2.10;1.75;;;21.20;72.00;;;;;;5051840;28;20021;-64
2022/06/08 04:04:05;;;;;;;1.88;1.63;;;21.00;94.80;;;;;;5051859;28;20039;-63
2022/06/08 04:06:31;;;;;;;1.80;1.70;;;20.80;69.80;;;;;;5051773;28;20108;-64
2022/06/08 04:08:57;;;;;;;2.10;1.60;;;;;;;;;;5051876;28;20028;-63
2022/06/08 04:11:23;;;;;;;2.67;1.50;;;;;;;;;;5051882;28;20032;-64
2022/06/08 04:13:49;;;;;;;1.23;1.10;;;;;;;;;;5051685;28;20132;-64
2022/06/08 04:16:16;;;;;;;1.60;1.50;;;21.70;66.30;;;;;;5051729;28;20025;-64
2022/06/08 04:18:42;;;;;;;1.55;1.42;;;;;;;;;;5051725;28;20111;-63
2022/06/08 04:21:10;;;;;;;1.50;1.40;;;21.70;94.70;;;;;;5051602;28;20464;-63
2022/06/08 04:23:37;;;;;;;1.30;1.20;;;21.60;94.60;;;;;;5051606;28;20025;-64
2022/06/08 04:26:03;;;;;;;1.52;1.42;;;21.50;94.90;;;;;;5051581;28;20530;-64
2022/06/08 04:28:29;;;;;;;1.50;1.40;;;21.40;63.20;;;;;;5051708;28;20025;-63
2022/06/08 04:30:55;;;;;;;1.20;1.10;;;;;;;;;;5051598;28;20029;-64
2022/06/08 04:33:21;;;;;;;1.63;1.52;;;;;;;;;;5051488;28;20375;-64
2022/06/08 04:35:47;;;;;;;1.67;1.58;;;21.10;62.30;;;;;;5051548;28;20025;-64
2022/06/08 04:38:13;;;;;;;1.40;1.25;;;21.60;66.90;;;;;;5051508;28;20061;-64
2022/06/08 04:40:40;;;;;;;1.67;1.58;;;21.40;64.20;;;;;;5051532;28;20064;-63
2022/06/08 04:43:06;;;;;;;1.83;1.33;;;21.40;65.80;;;;;;5051508;28;20151;-63
2022/06/08 04:45:35;;;;;;;1.15;1.00;;;21.30;94.70;;;;;;5053554;28;20037;-64
2022/06/08 04:48:01;;;;;;;1.65;1.38;;;;;;;;;;5055182;28;20035;-64
2022/06/08 04:50:28;;;;;;;1.45;1.35;;;21.20;62.20;;;;;;5055075;28;20102;-64
2022/06/08 04:52:54;;;;;;;1.52;1.42;;;;;;;;;;5054966;28;20094;-63
2022/06/08 04:55:20;;;;;;;1.27;1.17;;;20.80;79.10;;;;;;5055194;28;20029;-64
2022/06/08 04:57:46;;;;;;;1.90;1.30;;;;;;;;;;5054974;28;20104;-64
2022/06/08 05:00:21;;;;;;;1.60;1.17;;;20.90;94.60;;;;;;5054811;28;20033;-64
2022/06/08 05:02:50;;;;;;;1.33;1.23;;;21.30;94.80;;;;;;5054652;28;20136;-63
2022/06/08 05:05:39;;;;;;;1.30;1.20;;;21.40;94.80;;;;;;5054810;28;20025;-64
2022/06/08 05:08:06;;;;;;;1.30;1.05;;;21.60;61.80;;;;;;5043835;28;20102;-64
2022/06/08 05:10:34;;;;;;;1.33;1.23;;;21.20;64.10;;;;;;5054827;28;20092;-63
2022/06/08 05:13:01;;;;;;;1.42;1.33;;;;;;;;;;5054593;28;20487;-64
2022/06/08 05:15:31;;;;;;;1.40;1.30;;;21.30;64.30;;;;;;5054535;28;20033;-68
2022/06/08 05:17:57;;;;;;;;;;;21.30;65.10;;;;;;5054857;28;20495;-68
2022/06/08 05:20:24;;;;;;;1.17;1.10;;;21.40;64.00;;;;;;5054217;28;19912;-68
2022/06/08 05:22:51;;;;;;;1.90;1.40;;;21.40;77.70;;;;;;5054306;28;20449;-68
2022/06/08 05:25:21;;;;;;;1.85;1.30;;;21.30;64.40;;;;;;5054466;28;20380;-68
2022/06/08 05:27:47;;;;;;;2.33;1.30;;;;;;;;;;5054256;28;20098;-68
2022/06/08 05:30:13;;;;;;;2.65;1.20;;;;;;;;;;5054110;28;20568;-68
2022/06/08 05:32:39;;;;;;;2.35;1.40;;;;;;;;;;5053795;28;20033;-68
2022/06/08 05:35:06;;;;;;;1.52;1.38;;;21.20;64.50;;;;;;5053984;28;20025;-68
2022/06/08 05:37:32;;;;;;;1.75;1.45;;;;;;;;;;5054122;28;20033;-68
2022/06/08 05:39:58;;;;;;;1.65;1.40;;;;;;;;;;5053851;28;20083;-68
2022/06/08 05:42:23;;;;;;;1.35;1.25;;;21.10;94.70;;;;;;5053886;28;20037;-68
2022/06/08 05:44:50;;;;;;;3.28;1.58;;;;;;;;;;5053994;28;20021;-68
2022/06/08 05:47:16;;;;;;;1.90;1.27;;;21.80;79.90;;;;;;5053728;28;20059;-68
2022/06/08 05:49:43;;;;;;;1.33;1.20;;;21.30;94.70;;;;;;5053788;28;20043;-68
2022/06/08 05:52:09;;;;;;;1.23;1.13;;;21.60;77.70;;;;;;5053781;28;20035;-68
2022/06/08 05:54:35;;;;;;;1.45;1.13;;;;;;;;;;5053871;28;20035;-68
2022/06/08 05:57:02;;;;;;;1.50;1.20;;;21.70;73.90;;;;;;5052904;28;20086;-68
2022/06/08 05:59:28;;;;;;;1.67;1.30;;;21.40;94.60;;;;;;5053645;28;20388;-68
2022/06/08 06:01:54;;;;;;;1.00;1.00;;;21.70;94.50;;;;;;5053519;28;20056;-68
2022/06/08 06:04:20;;;;;;;1.30;1.10;;;;;;;;;;5053602;28;20511;-68
2022/06/08 06:06:46;;;;;;;1.70;1.17;;;;;;;;;;5053573;28;20117;-65
2022/06/08 06:09:13;;;;;;;1.00;1.00;;;21.40;63.30;;;;;;5053550;28;20391;-66
2022/06/08 06:11:39;;;;;;;1.30;1.15;;;;;;;;;;5053451;28;20032;-67
2022/06/08 06:14:05;;;;;;;3.40;1.42;;;;;;;;;;5053587;28;20130;-68
2022/06/08 06:16:32;;;;;;;2.97;1.10;;;21.40;67.00;;;;;;5053173;28;20040;-68
2022/06/08 06:18:58;;;;;;;1.63;1.10;;;;;;;;;;5053405;28;20020;-70
2022/06/08 06:21:25;;;;;;;1.70;1.05;;;;;;;;;;5053325;28;20031;-70
2022/06/08 06:23:52;;;;;;;3.97;1.23;;;21.40;63.50;;;;;;5053278;28;20025;-69
2022/06/08 06:26:18;;;;;;;2.05;1.30;;;21.30;95.00;;;;;;5053239;28;20029;-69
2022/06/08 06:28:44;;;;;;;1.10;0.95;;;;;;;;;;5053059;28;20036;-69
2022/06/08 06:31:24;;;;;;;2.30;1.30;;;21.50;65.50;;;;;;5053116;28;20103;-69
2022/06/08 06:33:51;;;;;;;2.92;1.10;;;;;;;;;;5053019;28;20055;-68
2022/06/08 06:36:17;;;;;;;2.53;0.80;;;;;;;;;;5052989;28;20112;-65
2022/06/08 06:38:42;;;;;;;1.52;1.40;;;21.70;95.10;;;;;;5053024;28;20058;-62
2022/06/08 06:41:12;;;;;;;1.20;1.10;;;21.70;95.00;;;;;;5052874;28;20039;-65
2022/06/08 06:43:38;;;;;;;2.73;1.10;;;;;;;;;;5052756;28;20028;-65
2022/06/08 06:46:04;;;;;;;3.28;1.17;;;;;;;;;;5053106;28;20033;-65
2022/06/08 06:48:29;;;;;;;7.72;1.30;;;21.00;94.70;;;;;;5052753;28;20029;-64
2022/06/08 06:50:55;;;;;;;2.83;1.10;;;;;;;;;;5053002;28;20017;-65
2022/06/08 06:53:21;;;;;;;2.28;1.30;;;;;;;;;;5052534;28;20445;-65
2022/06/08 06:55:47;;;;;;;2.20;1.30;;;;;;;;;;5052751;28;20115;-65
2022/06/08 06:58:13;;;;;;;3.25;1.27;;;;;;;;;;5052536;28;20044;-65
2022/06/08 07:00:39;;;;;;;1.38;1.15;;;;;;;;;;5052425;28;20063;-65
2022/06/08 07:03:05;;;;;;;1.45;1.00;;;;;;;;;;5052245;28;20049;-65
2022/06/08 07:05:34;;;;;;;3.85;1.10;;;21.60;64.30;;;;;;5052444;28;20033;-64
2022/06/08 07:07:59;;;;;;;4.95;1.30;;;21.80;94.90;;;;;;5052268;28;20028;-65
2022/06/08 07:10:26;;;;;;;3.38;1.10;;;21.60;64.20;;;;;;5052427;28;20051;-65
2022/06/08 07:12:52;;;;;;;1.35;0.95;;;;;;;;;;5052201;28;20033;-65
2022/06/08 07:15:20;;;;;;;1.10;1.00;;;21.80;64.30;;;;;;5052366;28;20036;-64
2022/06/08 07:17:46;;;;;;;3.25;1.30;;;21.30;94.70;;;;;;5052497;28;20426;-64
2022/06/08 07:20:13;;;;;;;1.75;1.00;;;21.80;94.70;;;;;;5052255;28;20117;-65
2022/06/08 07:22:39;;;;;;;3.13;1.25;;;22.00;94.90;;;;;;5052246;28;20040;-66
2022/06/08 07:25:06;;;;;;;2.22;1.10;;;21.70;64.50;;;;;;5052151;28;20013;-65
2022/06/08 07:27:32;;;;;;;4.78;1.30;;;21.80;95.00;;;;;;5052613;28;20119;-65
2022/06/08 07:29:58;;;;;;;1.50;0.95;;;21.90;95.00;;;;;;5052115;28;20108;-65
2022/06/08 07:32:24;;;;;;;2.70;1.20;;;;;;;;;;5052297;28;20033;-64
2022/06/08 07:34:50;;;;;;;2.95;1.27;;;;;;;;;;5052122;28;20064;-66
2022/06/08 07:37:16;;;;;;;1.67;1.35;;;;;;;;;;5051880;28;20056;-65
2022/06/08 07:39:42;;;;;;;2.50;1.60;;;;;;;;;;5051809;28;20067;-65
2022/06/08 07:42:08;;;;;;;3.40;1.65;;;21.60;95.20;;;;;;5051840;28;20021;-65
2022/06/08 07:44:34;;;;;;;1.17;0.95;;;;;;;;;;5051702;28;20404;-65
2022/06/08 07:47:00;;;;;;;5.10;1.48;;;;;;;;;;5051708;28;20033;-65
2022/06/08 07:49:39;;;;;;;5.65;1.40;;;;;;;;;;5051688;28;20480;-65
2022/06/08 07:52:10;;;;;;;5.18;1.45;;;21.60;95.10;;;;;;5052094;28;20029;-65
2022/06/08 07:54:37;;;;;;;2.17;1.20;;;21.90;95.20;;;;;;5051908;28;20129;-65
2022/06/08 07:57:04;;;;;;;6.07;1.30;;;21.90;95.10;;;;;;5051500;28;20024;-65
2022/06/08 07:59:32;;;;;;;2.90;1.42;;;22.00;95.20;;;;;;5051889;28;20104;-65
2022/06/08 08:01:58;;;;;;;3.05;1.30;;;22.00;95.20;;;;;;5051351;28;20417;-65
2022/06/08 08:04:24;;;;;;;3.92;1.52;;;21.70;65.10;;;;;;5051676;28;20029;-65
2022/06/08 08:06:50;;;;;;;5.00;1.70;;;21.90;95.20;;;;;;5051588;28;20438;-65
2022/06/08 08:09:22;;;;;;;4.07;1.42;;;22.00;95.30;;;;;;5051770;28;20025;-65
2022/06/08 08:11:50;;;;;;;3.63;1.10;;;21.90;65.00;;;;;;5052120;28;20017;-60
2022/06/08 08:14:17;;;;;;;2.50;1.08;;;22.00;63.20;;;;;;5051688;28;20037;-60
2022/06/08 08:16:43;;;;;;;2.47;1.35;;;21.70;66.80;;;;;;5051570;28;20545;-60
2022/06/08 08:19:11;;;;;;;3.75;1.33;;;22.10;66.30;;;;;;5051646;28;20033;-59
2022/06/08 08:21:37;;;;;;;4.25;1.27;;;;;;;;;;5055653;28;20051;-59
2022/06/08 08:24:04;;;;;;;1.58;1.23;;;21.60;64.10;;;;;;5055437;28;20029;-60
2022/06/08 08:26:30;;;;;;;4.07;1.33;;;22.00;95.00;;;;;;5055444;28;20078;-60
2022/06/08 08:28:57;;;;;;;5.55;1.13;;;;;;;;;;5055493;28;20025;-59
2022/06/08 08:31:23;;;;;;;1.83;1.27;;;21.90;94.90;;;;;;5055380;28;20448;-60
2022/06/08 08:33:49;;;;;;;1.80;1.15;;;;;;;;;;5055470;28;20072;-60
2022/06/08 08:36:16;;;;;;;2.35;1.00;;;;;;;;;;5055225;28;20072;-60
2022/06/08 08:38:42;;;;;;;3.70;1.20;;;21.90;95.00;;;;;;5055510;28;20029;-60
2022/06/08 08:42:20;;;;;;;1.90;1.33;;;21.50;94.70;;;;;;5055451;28;20025;-60
2022/06/08 08:43:59;;;;;;;2.15;1.17;;;;;;;;;;5054891;28;20078;-60
2022/06/08 08:46:25;;;;;;;3.78;1.35;;;;;;;;;;5055162;28;20040;-59
2022/06/08 08:49:04;;;;;;;3.17;1.42;;;21.40;62.30;;;;;;5055127;28;20025;-59
2022/06/08 08:51:43;;;;;;;2.35;1.25;;;21.70;60.70;;;;;;5055086;28;20056;-60
2022/06/08 08:54:26;;;;;;;2.35;1.15;;;21.90;81.10;;;;;;5054889;28;20044;-60
2022/06/08 08:56:55;;;;;;;1.55;1.17;;;21.90;63.80;;;;;;5054988;28;20017;-60
2022/06/08 08:59:26;;;;;;;5.20;1.48;;;21.80;63.80;;;;;;5054794;28;20033;-60
2022/06/08 09:01:52;;;;;;;2.78;1.20;;;21.30;94.40;;;;;;5054586;28;20037;-60
2022/06/08 09:04:31;;;;;;;1.25;0.98;;;21.70;94.60;;;;;;5054766;28;20040;-60
2022/06/08 09:07:00;;;;;;;5.53;1.17;;;21.80;63.40;;;;;;5054780;28;20013;-60
2022/06/08 09:09:33;;;;;;;6.30;1.38;;;21.80;60.30;;;;;;5054788;28;20025;-59
2022/06/08 09:11:59;;;;;;;8.18;1.30;;;;;;;;;;5054686;28;20051;-60
2022/06/08 09:14:44;;;;;;;4.07;1.30;;;21.70;64.20;;;;;;5054699;28;20187;-59
2022/06/08 09:17:34;;;;;;;5.45;1.30;;;21.80;94.70;;;;;;5054582;28;20467;-60
2022/06/08 09:20:03;;;;;;;1.60;1.23;;;21.70;94.90;;;;;;5054555;28;20021;-59
2022/06/08 09:22:32;;;;;;;2.83;1.30;;;21.80;64.20;;;;;;5054090;28;20017;-60
2022/06/08 09:25:31;;;;;;;1.73;1.35;;;22.00;61.50;;;;;;5054678;28;20024;-60
2022/06/08 09:27:58;;;;;;;2.58;1.20;;;21.50;94.70;;;;;;5054459;28;20026;-58
2022/06/08 09:30:30;;;;;;;4.40;1.60;;;21.90;95.00;;;;;;5054110;28;20502;-60
2022/06/08 09:32:57;;;;;;;1.52;1.42;;;;;;;;;;5053563;28;20025;-60
2022/06/08 09:35:28;;;;;;;7.85;1.23;;;22.00;61.20;;;;;;5054399;28;20044;-60
2022/06/08 09:38:09;;;;;;;2.67;1.25;;;22.00;93.70;;;;;;5054198;28;20036;-59
2022/06/08 09:40:37;;;;;;;3.15;1.35;;;21.80;94.70;;;;;;5037816;28;20056;-59
2022/06/08 09:43:30;;;;;;;4.15;1.65;;;21.90;60.60;;;;;;5054100;28;20395;-59
2022/06/08 09:46:16;;;;;;;2.80;1.10;;;22.00;61.40;;;;;;5054001;28;20029;-59
2022/06/08 09:51:42;;;;;;;1.88;1.45;;;22.20;95.30;;;;;;5054260;28;20056;-59
2022/06/08 09:54:26;;;;;;;4.80;1.48;;;22.10;96.00;;;;;;5053841;28;20480;-60
2022/06/08 09:57:26;;;;;;;4.57;1.20;;;21.90;95.70;;;;;;5053855;28;20029;-60
2022/06/08 10:00:04;;;;;;;3.95;1.23;;;22.10;95.50;;;;;;5053872;28;20112;-60
2022/06/08 10:02:50;;;;;;;1.05;0.95;;;22.30;94.50;;;;;;5035513;28;20045;-60
2022/06/08 10:05:32;;;;;;;5.45;1.45;;;21.90;95.80;;;;;;5053973;28;20383;-60
2022/06/08 10:08:15;;;;;;;1.10;1.00;;;21.90;83.00;;;;;;5053632;28;20029;-60
2022/06/08 10:11:34;;;;;;;4.10;1.20;;;22.10;63.30;;;;;;5053917;28;20029;-61
2022/06/08 10:14:21;;;;;;;1.98;1.00;;;22.10;67.20;;;;;;5053325;28;20033;-60
2022/06/08 10:17:10;;;;;;;;;;;22.00;63.80;;;;;;5054226;28;20544;-61
2022/06/08 10:19:49;;;;;;;1.75;0.98;;;21.90;67.00;;;;;;5042563;28;19904;-60
2022/06/08 10:22:15;;;;;;;3.60;1.43;;;;;;;;;;5053450;28;20021;-61
2022/06/08 10:24:54;;;;;;;4.43;1.35;;;21.90;70.30;;;;;;5053543;28;20025;-60
2022/06/08 10:27:30;;;;;;;2.63;1.42;;;21.90;96.00;;;;;;5053240;28;20024;-60
2022/06/08 10:30:20;;;;;;;1.00;0.90;;;21.70;95.90;;;;;;5053271;28;20543;-60
2022/06/08 10:32:50;;;;;;;;;;;22.00;63.80;;;;;;5053523;28;20021;-60
2022/06/08 10:35:48;;;;;;;1.43;0.97;;;22.00;67.20;;;;;;5053060;28;19905;-60
2022/06/08 10:38:44;;;;;;;3.22;1.10;;;21.60;96.00;;;;;;5052624;28;20104;-60
2022/06/08 10:43:58;;;;;;;3.20;1.15;;;22.10;67.30;;;;;;5052721;28;20048;-59
2022/06/08 10:46:32;;;;;;;2.55;1.10;;;22.00;96.10;;;;;;5052876;28;20021;-59
2022/06/08 10:48:58;;;;;;;1.30;0.85;;;22.30;95.80;;;;;;5053129;28;20389;-59
2022/06/08 10:51:28;;;;;;;2.05;1.10;;;22.40;95.90;;;;;;5052755;28;20074;-59
2022/06/08 10:56:39;;;;;;;1.50;0.77;;;;;;;;;;5053060;28;20083;-59
2022/06/08 10:59:08;;;;;;;1.67;0.75;;;22.00;63.30;;;;;;5052636;28;20475;-60
2022/06/08 11:01:43;;;;;;;2.83;0.70;;;21.80;78.10;;;;;;5052402;28;20039;-60
2022/06/08 11:04:32;;;;;;;3.47;0.98;;;22.10;67.00;;;;;;5052624;28;20045;-60
2022/06/08 11:07:17;;;;;;;1.42;0.57;;;22.00;95.30;;;;;;5040308;28;20033;-59
2022/06/08 11:09:52;;;;;;;0.85;0.55;;;21.90;95.90;;;;;;5052468;28;20396;-59
2022/06/08 11:12:46;;;;;;;1.80;0.70;;;22.00;88.40;;;;;;5052557;28;20099;-59
2022/06/08 11:15:23;;;;;;;1.30;0.70;;;21.90;95.90;;;;;;5052500;28;20079;-59
2022/06/08 11:17:58;;;;;;;1.05;0.80;;;21.80;95.70;;;;;;5052306;28;20029;-59
2022/06/08 11:20:35;;;;;;;1.02;0.73;;;21.90;67.00;;;;;;5052587;28;20021;-59
2022/06/08 11:23:27;;;;;;;1.35;0.77;;;21.80;85.20;;;;;;5052205;28;20487;-59
2022/06/08 11:26:07;;;;;;;1.63;0.68;;;21.50;95.90;;;;;;5052201;28;20040;-59
2022/06/08 11:28:43;;;;;;;1.88;0.82;;;21.90;95.80;;;;;;5052244;28;20036;-59
2022/06/08 11:31:27;;;;;;;0.88;0.60;;;19.40;62.10;;;;;;5052556;28;20036;-60
2022/06/08 11:34:24;;;;;;;1.42;0.73;;;22.00;63.40;;;;;;5052067;28;20090;-60
2022/06/08 11:36:56;;;;;;;1.75;0.80;;;21.80;95.80;;;;;;5052059;28;20025;-60
2022/06/08 11:39:40;;;;;;;1.17;0.60;;;22.00;95.80;;;;;;5052082;28;20065;-61
2022/06/08 11:42:14;;;;;;;1.08;0.57;;;22.00;91.00;;;;;;5051979;28;20059;-60
2022/06/08 11:44:52;;;;;;;1.45;0.70;;;21.50;95.70;;;;;;5051979;28;20036;-61
2022/06/08 11:47:43;;;;;;;2.05;0.80;;;21.60;95.70;;;;;;5052032;28;20045;-61
2022/06/08 11:50:16;;;;;;;0.63;0.60;;;22.20;95.90;;;;;;5052092;28;20079;-60
2022/06/08 11:52:44;;;;;;;1.13;0.77;;;22.00;66.60;;;;;;5051827;28;20025;-61
2022/06/08 11:55:45;;;;;;;1.60;0.77;;;21.80;95.80;;;;;;5053594;28;20033;-60
2022/06/08 11:58:18;;;;;;;1.88;0.80;;;22.10;67.10;;;;;;5030776;28;20033;-61
2022/06/08 12:00:48;;;;;;;1.92;0.77;;;21.90;69.60;;;;;;5056317;28;20035;-61
2022/06/08 12:03:17;;;;;;;1.17;0.70;;;21.70;72.00;;;;;;5055790;28;20048;-60
2022/06/08 12:05:51;;;;;;;0.70;0.60;;;21.70;95.80;;;;;;5055989;28;20506;-60
2022/06/08 12:08:42;;;;;;;1.17;0.75;;;22.10;66.80;;;;;;5056202;28;20057;-60
2022/06/08 12:11:11;;;;;;;0.95;0.60;;;22.10;66.90;;;;;;5055818;28;20521;-59
2022/06/08 12:13:37;;;;;;;1.00;0.52;;;;;;;;;;5055716;28;20037;-59
2022/06/08 12:16:31;;;;;;;0.68;0.60;;;22.10;66.50;;;;;;5055688;28;20175;-60
2022/06/08 12:19:18;;;;;;;0.80;0.60;;;21.90;95.70;;;;;;5055808;28;20029;-60
2022/06/08 12:21:47;;;;;;;1.38;0.70;;;21.50;95.70;;;;;;5055715;28;20033;-60
2022/06/08 12:24:13;;;;;;;0.77;0.60;;;;;;;;;;5055567;28;20156;-60
2022/06/08 12:26:42;;;;;;;1.02;0.60;;;22.10;63.40;;;;;;5055566;28;20055;-59
2022/06/08 12:29:22;;;;;;;2.30;1.20;;;22.40;93.40;;;;;;5055522;28;20506;-59
2022/06/08 12:32:01;;;;;;;11.43;0.75;;;22.10;67.60;;;;;;5055528;28;20471;-61
2022/06/08 12:35:13;;;;;;;2.85;0.63;;;22.20;96.90;;;;;;5055641;28;20037;-61
2022/06/08 12:37:47;;;;;;;4.90;1.20;;;21.90;69.50;;;;;;5016975;28;20062;-61
2022/06/08 12:40:16;;;;;;;7.28;0.90;;;22.40;76.50;;;;;;5055283;28;20071;-61
2022/06/08 12:42:49;;;;;;;4.15;1.10;;;21.60;96.30;;;;;;5055177;28;20033;-61
2022/06/08 12:45:36;;;;;;;1.75;1.00;;;22.10;65.90;;;;;;5055274;28;20029;-62
2022/06/08 12:48:37;;;;;;;3.42;0.77;;;22.10;69.70;;;;;;5055221;28;20447;-60
2022/06/08 12:51:22;;;;;;;2.50;1.02;;;22.30;70.30;;;;;;5049488;28;20033;-60
2022/06/08 12:53:48;;;;;;;2.90;0.90;;;22.20;97.10;;;;;;5055050;28;20399;-60
2022/06/08 12:56:14;;;;;;;2.08;0.70;;;21.70;79.40;;;;;;5055031;28;20021;-61
2022/06/08 12:58:40;;;;;;;1.75;0.65;;;22.40;97.60;;;;;;5054995;28;20021;-61
2022/06/08 13:01:11;;;;;;;2.22;0.90;;;22.00;70.40;;;;;;5054887;28;20036;-62
2022/06/08 13:03:37;;;;;;;1.30;0.60;;;21.60;97.30;;;;;;5054918;28;20533;-61
2022/06/08 13:06:03;;;;;;;2.97;0.90;;;;;;;;;;5054612;28;20028;-60
2022/06/08 13:08:28;;;;;;;2.67;1.00;;;22.50;97.50;;;;;;5054772;28;20055;-60
2022/06/08 13:10:59;;;;;;;1.45;0.80;;;21.90;97.50;;;;;;5054749;28;20032;-60
2022/06/08 13:13:29;;;;;;;2.88;0.80;;;22.10;70.30;;;;;;5054836;28;20122;-60
2022/06/08 13:15:57;;;;;;;2.42;0.70;;;22.20;70.70;;;;;;5054666;28;20028;-61
2022/06/08 13:18:28;;;;;;;1.58;0.68;;;21.50;74.40;;;;;;5054518;28;20392;-60
2022/06/08 13:20:54;;;;;;;;;;;22.10;71.40;;;;;;5055215;28;20021;-61
2022/06/08 13:23:21;;;;;;;1.00;0.80;;;21.70;97.80;;;;;;5054570;28;19904;-60
2022/06/08 13:25:49;;;;;;;1.60;0.80;;;21.90;97.80;;;;;;5054503;28;20033;-60
2022/06/08 13:28:19;;;;;;;0.63;0.63;;;22.30;98.20;;;;;;5054302;28;20017;-60
2022/06/08 13:30:47;;;;;;;1.05;0.80;;;22.40;98.10;;;;;;5054448;28;20501;-60
2022/06/08 13:36:06;;;;;;;1.27;0.63;;;22.10;71.80;;;;;;5054668;28;20128;-59
2022/06/08 13:38:32;;;;;;;0.85;0.57;;;22.60;98.10;;;;;;5054350;28;20368;-60
2022/06/08 13:41:00;;;;;;;1.63;0.80;;;22.50;97.80;;;;;;5054183;28;20074;-60
2022/06/08 13:43:26;;;;;;;2.50;0.80;;;22.70;98.00;;;;;;5054062;28;20036;-60
2022/06/08 13:45:52;;;;;;;2.58;0.77;;;22.40;97.90;;;;;;5054146;28;20029;-60
2022/06/08 13:48:21;;;;;;;1.92;0.73;;;22.50;71.80;;;;;;5054034;28;20029;-60
2022/06/08 13:50:49;;;;;;;2.67;0.70;;;22.30;97.90;;;;;;5054074;28;20141;-61
2022/06/08 13:53:22;;;;;;;1.42;0.77;;;22.50;81.70;;;;;;5053820;28;20071;-61